aviador You're here:

KPEO Decoded Metar

PENN YAN in NY, USA
Report Time2017-11-20 12:53:00
UTC Time2017-11-20 13:13:52
Flight Rules vfr VFR
Wind240° at 09 kt
W.Decomp.*RWY 28: 7.9 kt HW 4.2 kt LCW
RWY 19: 4.2 kt HW 7.9 kt RCW
W.Rank240° ranks 8
Current wind is above 240° avg. (7.8)
Visibility9999 m
Phenomena:N/A
Clouds:Scattered 040 Hf
Broken 085 Hf
Expected CloudBase > 2,800 ft AGL from Temp-Dew spread
Ceiling8,500 ft
Temp-1°C (ISA -14)
Dew Point-8°C (59% RH)
AAT-7.1°C
QNH1015 hPa
Density Alt-932 ft
Elevation840 ft
Report Wrong Elevation
Raw Report
METAR KPEO 201253Z AUTO 24009KT 10SM SCT040 BKN085 M01/M08 A2997 RMK
AO2 SLP160 T10061078=

Extra information for KPEO:More info

Metar Taf Metar & Taf Last 4 Metars F.Rules Stats Wind Profile Meteogram Temp Stats Airport Information Weather charts Add Link Nearby VenuesMetar ALERT Operation Metar Decoded Social comments

AIRNAV info for KPEO